Time;durP1;ratioP1;P1;durP2;ratioP2;P2;SDS_P1;SDS_P2;PMS_P1;PMS_P2;Temp;Humidity;BMP_temperature;BMP_pressure;BME280_temperature;BME280_humidity;BME280_pressure;Samples;Min_cycle;Max_cycle;Signal;HPM_P1;HPM_P2
2021/04/04 00:00:14;;;;;;;2.40;2.20;;;;;;;;;;5115050;28;20199;-56
2021/04/04 00:02:40;;;;;;;2.72;2.15;;;;;;;;;;5125637;27;20265;-55
2021/04/04 00:05:07;;;;;;;2.33;2.00;;;;;;;;;;5135056;27;20176;-55
2021/04/04 00:07:33;;;;;;;1.90;1.80;;;;;;;;;;5135315;27;20208;-55
2021/04/04 00:09:59;;;;;;;2.60;2.00;;;;;;;;;;5136022;27;20173;-55
2021/04/04 00:12:25;;;;;;;2.10;1.90;;;;;;;;;;5123662;27;20510;-55
2021/04/04 00:14:51;;;;;;;2.45;1.98;;;;;;;;;;5135074;27;20586;-55
2021/04/04 00:17:17;;;;;;;2.33;2.13;;;;;;;;;;5135138;27;20177;-55
2021/04/04 00:19:43;;;;;;;2.40;2.20;;;;;;;;;;5134639;27;20187;-55
2021/04/04 00:22:10;;;;;;;1.85;1.63;;;;;;;;;;5132071;27;20181;-55
2021/04/04 00:24:36;;;;;;;1.70;1.60;;;;;;;;;;5132860;27;20184;-56
2021/04/04 00:27:02;;;;;;;1.85;1.67;;;;;;;;;;5129774;27;20208;-55
2021/04/04 00:29:28;;;;;;;2.25;1.90;;;;;;;;;;5114295;28;20511;-55
2021/04/04 00:31:55;;;;;;;1.85;1.70;;;;;;;;;;5114607;28;20204;-56
2021/04/04 00:34:21;;;;;;;2.00;1.80;;;;;;;;;;5118219;27;20402;-56
2021/04/04 00:36:47;;;;;;;2.00;1.80;;;;;;;;;;5134909;27;20177;-55
2021/04/04 00:39:13;;;;;;;2.08;1.88;;;;;;;;;;5126694;27;20226;-56
2021/04/04 00:41:40;;;;;;;2.65;2.17;;;;;;;;;;5114238;28;20259;-55
2021/04/04 00:44:06;;;;;;;2.20;2.00;;;;;;;;;;5112964;28;20188;-55
2021/04/04 00:46:32;;;;;;;2.10;1.90;;;;;;;;;;5113678;28;20188;-55
2021/04/04 00:48:58;;;;;;;2.60;1.85;;;;;;;;;;5114569;28;20565;-55
2021/04/04 00:51:25;;;;;;;2.00;1.80;;;;;;;;;;5118073;27;20310;-55
2021/04/04 00:53:51;;;;;;;2.67;1.80;;;;;;;;;;5114537;28;20254;-55
2021/04/04 00:56:17;;;;;;;2.30;1.92;;;;;;;;;;5128367;27;20209;-55
2021/04/04 00:58:44;;;;;;;2.30;1.83;;;;;;;;;;5114111;28;20209;-55
2021/04/04 01:01:10;;;;;;;2.10;1.65;;;;;;;;;;5114252;28;20192;-55
2021/04/04 01:03:36;;;;;;;3.70;2.40;;;;;;;;;;5123215;27;20232;-55
2021/04/04 01:06:06;;;;;;;2.63;2.00;;;;;;;;;;5134525;27;20171;-55
2021/04/04 01:08:33;;;;;;;2.22;1.67;;;;;;;;;;5132549;27;20203;-55
2021/04/04 01:10:59;;;;;;;2.00;1.90;;;;;;;;;;5134069;27;20187;-55
2021/04/04 01:13:28;;;;;;;1.80;1.60;;;;;;;;;;5133865;27;20181;-56
2021/04/04 01:15:54;;;;;;;3.13;1.75;;;;;;;;;;5133593;27;20202;-60
2021/04/04 01:18:26;;;;;;;2.45;1.80;;;;;;;;;;5132944;27;20199;-55
2021/04/04 01:20:57;;;;;;;2.22;1.70;;;;;;;;;;5135020;27;20188;-55
2021/04/04 01:23:31;;;;;;;2.00;1.80;;;;;;;;;;5134292;27;20169;-55
2021/04/04 01:26:24;;;;;;;1.90;1.48;;;;;;;;;;5134212;28;20225;-55
2021/04/04 01:28:50;;;;;;;1.60;1.50;;;;;;;;;;5084538;27;20203;-55
2021/04/04 01:31:17;;;;;;;3.25;1.98;;;;;;;;;;5127641;27;20481;-55
2021/04/04 01:33:43;;;;;;;1.67;1.58;;;;;;;;;;5122502;28;20296;-55
2021/04/04 01:36:11;;;;;;;2.35;2.00;;;;;;;;;;5114664;28;20195;-55
2021/04/04 01:38:40;;;;;;;1.98;1.77;;;;;;;;;;5113551;28;20185;-56
2021/04/04 01:41:22;;;;;;;2.97;1.83;;;;;;;;;;5123267;27;20180;-55
2021/04/04 01:43:49;;;;;;;1.40;1.30;;;;;;;;;;5115160;28;20226;-55
2021/04/04 01:46:15;;;;;;;2.08;1.80;;;;;;;;;;5130239;27;20276;-55
2021/04/04 01:48:42;;;;;;;3.15;1.95;;;;;;;;;;5113477;28;20177;-55
2021/04/04 01:51:10;;;;;;;1.90;1.60;;;;;;;;;;5118214;28;20168;-55
2021/04/04 01:53:37;;;;;;;1.52;1.42;;;;;;;;;;5133360;28;20184;-55
2021/04/04 01:56:03;;;;;;;2.70;2.00;;;;;;;;;;5133305;28;20552;-55
2021/04/04 01:58:31;;;;;;;1.83;1.60;;;;;;;;;;5148937;27;20451;-55
2021/04/04 02:00:58;;;;;;;1.60;1.40;;;;;;;;;;5150832;27;20189;-55
2021/04/04 02:03:24;;;;;;;1.65;1.52;;;;;;;;;;5113317;28;20606;-55
2021/04/04 02:05:51;;;;;;;1.80;1.65;;;;;;;;;;5112651;28;20238;-55
2021/04/04 02:08:18;;;;;;;1.50;1.40;;;;;;;;;;5113342;28;20591;-55
2021/04/04 02:10:44;;;;;;;1.70;1.60;;;;;;;;;;5114160;28;20568;-55
2021/04/04 02:13:11;;;;;;;2.03;1.70;;;;;;;;;;5113813;28;20222;-55
2021/04/04 02:15:37;;;;;;;2.17;1.67;;;;;;;;;;5117533;27;20205;-55
2021/04/04 02:18:07;;;;;;;2.05;1.80;;;;;;;;;;5138174;27;20181;-55
2021/04/04 02:20:34;;;;;;;1.50;1.40;;;;;;;;;;5135542;27;20173;-55
2021/04/04 02:23:02;;;;;;;1.75;1.65;;;;;;;;;;5123547;27;20180;-55
2021/04/04 02:25:28;;;;;;;1.55;1.40;;;;;;;;;;5116527;28;20184;-55
2021/04/04 02:27:54;;;;;;;1.50;1.35;;;;;;;;;;5125488;27;20197;-55
2021/04/04 02:30:21;;;;;;;1.58;1.48;;;;;;;;;;5117227;28;20178;-55
2021/04/04 02:32:51;;;;;;;1.60;1.50;;;;;;;;;;5128794;27;20195;-55
2021/04/04 02:35:23;;;;;;;1.90;1.60;;;;;;;;;;5138023;27;20208;-55
2021/04/04 02:37:50;;;;;;;1.55;1.45;;;;;;;;;;5137340;27;20493;-55
2021/04/04 02:40:17;;;;;;;1.55;1.45;;;;;;;;;;5155974;27;20266;-55
2021/04/04 02:42:44;;;;;;;1.60;1.50;;;;;;;;;;5134135;27;20184;-55
2021/04/04 02:45:11;;;;;;;1.40;1.30;;;;;;;;;;5136398;27;20201;-55
2021/04/04 02:47:40;;;;;;;1.60;1.50;;;;;;;;;;5136408;27;20185;-55
2021/04/04 02:50:07;;;;;;;1.40;1.20;;;;;;;;;;5137458;27;20248;-56
2021/04/04 02:52:36;;;;;;;1.58;1.48;;;;;;;;;;5136696;27;20576;-55
2021/04/04 02:55:03;;;;;;;2.08;1.45;;;;;;;;;;5135740;27;20211;-55
2021/04/04 02:57:31;;;;;;;1.30;1.20;;;;;;;;;;5098947;28;20195;-55
2021/04/04 02:59:59;;;;;;;2.05;1.55;;;;;;;;;;5116000;28;20170;-55
2021/04/04 03:02:25;;;;;;;1.83;1.63;;;;;;;;;;5117776;27;20295;-56
2021/04/04 03:04:52;;;;;;;1.40;1.30;;;;;;;;;;5097983;28;20192;-56
2021/04/04 03:07:19;;;;;;;1.58;1.48;;;;;;;;;;5110594;27;20192;-55
2021/04/04 03:09:46;;;;;;;1.50;1.30;;;;;;;;;;5134787;27;20173;-56
2021/04/04 03:12:13;;;;;;;1.60;1.50;;;;;;;;;;5120738;27;20277;-55
2021/04/04 03:14:40;;;;;;;2.67;1.50;;;;;;;;;;5114941;28;20216;-55
2021/04/04 03:17:07;;;;;;;1.38;1.27;;;;;;;;;;5116138;28;20271;-55
2021/04/04 03:19:34;;;;;;;1.33;1.23;;;;;;;;;;5115744;28;20375;-55
2021/04/04 03:22:00;;;;;;;3.38;1.38;;;;;;;;;;5130197;27;20620;-55
2021/04/04 03:24:27;;;;;;;1.58;1.40;;;;;;;;;;5126320;27;20291;-55
2021/04/04 03:26:53;;;;;;;3.20;1.60;;;;;;;;;;5133342;27;20241;-55
2021/04/04 03:29:20;;;;;;;2.22;1.65;;;;;;;;;;5136474;27;20191;-55
2021/04/04 03:31:46;;;;;;;1.85;1.45;;;;;;;;;;5124322;27;20446;-55
2021/04/04 03:34:12;;;;;;;1.27;1.17;;;;;;;;;;5118277;27;20193;-56
2021/04/04 03:36:38;;;;;;;1.65;1.45;;;;;;;;;;5135811;27;20172;-56
2021/04/04 03:39:05;;;;;;;1.63;1.20;;;;;;;;;;5135756;27;20271;-56
2021/04/04 03:41:31;;;;;;;1.60;1.50;;;;;;;;;;5126075;27;20230;-56
2021/04/04 03:43:58;;;;;;;1.10;1.10;;;;;;;;;;5122499;27;20560;-55
2021/04/04 03:46:25;;;;;;;1.58;1.30;;;;;;;;;;5135689;27;20192;-56
2021/04/04 03:48:51;;;;;;;1.63;1.52;;;;;;;;;;5125659;27;20181;-56
2021/04/04 03:51:18;;;;;;;1.77;1.30;;;;;;;;;;5128899;27;20185;-56
2021/04/04 03:53:45;;;;;;;1.58;1.17;;;;;;;;;;5114814;28;20184;-55
2021/04/04 03:56:14;;;;;;;1.50;1.40;;;;;;;;;;5114777;28;20177;-56
2021/04/04 03:58:41;;;;;;;1.70;1.60;;;;;;;;;;5115066;28;20170;-55
2021/04/04 04:01:08;;;;;;;1.40;1.30;;;;;;;;;;5123304;27;20565;-55
2021/04/04 04:03:34;;;;;;;1.92;1.55;;;;;;;;;;5119250;27;20189;-56
2021/04/04 04:06:01;;;;;;;1.15;1.02;;;;;;;;;;5124495;27;20192;-56
2021/04/04 04:08:27;;;;;;;1.48;1.38;;;;;;;;;;5135034;27;20184;-56
2021/04/04 04:10:54;;;;;;;1.50;1.40;;;;;;;;;;5128990;27;20199;-56
2021/04/04 04:13:20;;;;;;;1.45;1.23;;;;;;;;;;5115380;28;20457;-56
2021/04/04 04:15:46;;;;;;;1.50;1.40;;;;;;;;;;5114002;28;20207;-56
2021/04/04 04:18:12;;;;;;;1.33;1.23;;;;;;;;;;5114544;28;20169;-56
2021/04/04 04:20:39;;;;;;;1.50;1.40;;;;;;;;;;5118096;27;20205;-56
2021/04/04 04:23:07;;;;;;;1.45;1.35;;;;;;;;;;5114864;28;20252;-56
2021/04/04 04:25:33;;;;;;;2.47;1.45;;;;;;;;;;5113579;28;20590;-56
2021/04/04 04:27:59;;;;;;;1.52;1.42;;;;;;;;;;5114964;27;20196;-56
2021/04/04 04:30:26;;;;;;;1.40;1.30;;;;;;;;;;5123250;27;20861;-56
2021/04/04 04:32:54;;;;;;;1.55;1.45;;;;;;;;;;5135204;27;20204;-55
2021/04/04 04:35:21;;;;;;;3.83;1.52;;;;;;;;;;5126746;27;20214;-55
2021/04/04 04:37:47;;;;;;;1.70;1.60;;;;;;;;;;5127560;27;20181;-55
2021/04/04 04:40:13;;;;;;;2.33;1.13;;;;;;;;;;5126834;27;20815;-56
2021/04/04 04:42:43;;;;;;;1.20;1.10;;;;;;;;;;5134767;27;20176;-56
2021/04/04 04:45:16;;;;;;;1.45;1.17;;;;;;;;;;5134770;27;20169;-56
2021/04/04 04:47:42;;;;;;;1.58;1.30;;;;;;;;;;5134269;27;20287;-56
2021/04/04 04:50:09;;;;;;;1.38;1.27;;;;;;;;;;5127980;27;20181;-56
2021/04/04 04:52:36;;;;;;;1.20;1.10;;;;;;;;;;5112556;27;20271;-56
2021/04/04 04:55:02;;;;;;;2.55;1.30;;;;;;;;;;5113712;28;20257;-56
2021/04/04 04:57:28;;;;;;;1.60;1.40;;;;;;;;;;5113868;28;20177;-56
2021/04/04 04:59:56;;;;;;;1.55;1.40;;;;;;;;;;5117676;27;20172;-56
2021/04/04 05:02:22;;;;;;;1.83;1.58;;;;;;;;;;5133260;27;20192;-55
2021/04/04 05:04:48;;;;;;;1.38;1.23;;;;;;;;;;5133943;27;20464;-55
2021/04/04 05:07:17;;;;;;;1.77;1.40;;;;;;;;;;5134235;27;20203;-55
2021/04/04 05:09:44;;;;;;;1.42;1.33;;;;;;;;;;5131475;27;20183;-55
2021/04/04 05:12:11;;;;;;;2.67;1.58;;;;;;;;;;5129338;27;20285;-55
2021/04/04 05:14:38;;;;;;;2.60;1.42;;;;;;;;;;5133487;27;20228;-55
2021/04/04 05:17:04;;;;;;;1.48;1.38;;;;;;;;;;5134842;27;20172;-55
2021/04/04 05:19:30;;;;;;;1.42;1.33;;;;;;;;;;5133673;27;20169;-55
2021/04/04 05:21:57;;;;;;;1.40;1.30;;;;;;;;;;5114403;28;20559;-55
2021/04/04 05:24:23;;;;;;;1.40;1.30;;;;;;;;;;5113390;28;20178;-55
2021/04/04 05:26:49;;;;;;;2.20;1.60;;;;;;;;;;5115449;27;20247;-55
2021/04/04 05:29:16;;;;;;;2.08;1.20;;;;;;;;;;5115046;28;20173;-55
2021/04/04 05:31:49;;;;;;;1.40;1.30;;;;;;;;;;5114234;28;20234;-55
2021/04/04 05:34:16;;;;;;;1.23;1.13;;;;;;;;;;5114755;28;20908;-55
2021/04/04 05:36:50;;;;;;;1.30;1.20;;;;;;;;;;5113295;28;20445;-55
2021/04/04 05:39:17;;;;;;;1.80;1.52;;;;;;;;;;5114011;28;20211;-55
2021/04/04 05:41:47;;;;;;;1.35;1.25;;;;;;;;;;5132479;28;20177;-55
2021/04/04 05:44:15;;;;;;;1.40;1.13;;;;;;;;;;5134171;28;20199;-55
2021/04/04 05:46:45;;;;;;;1.70;1.50;;;;;;;;;;5133719;28;20168;-55
2021/04/04 05:49:18;;;;;;;1.50;1.38;;;;;;;;;;5116259;28;20564;-55
2021/04/04 05:51:55;;;;;;;1.30;1.20;;;;;;;;;;5134268;27;20230;-56
2021/04/04 05:54:24;;;;;;;1.27;1.17;;;;;;;;;;5138102;27;20196;-56
2021/04/04 05:56:52;;;;;;;1.35;1.25;;;;;;;;;;5151234;27;20199;-56
2021/04/04 05:59:22;;;;;;;1.85;1.30;;;;;;;;;;5156966;27;20182;-55
2021/04/04 06:01:48;;;;;;;1.48;1.30;;;;;;;;;;5099838;28;20207;-55
2021/04/04 06:04:33;;;;;;;1.30;1.20;;;;;;;;;;5117213;27;20264;-55
2021/04/04 06:07:17;;;;;;;1.25;1.15;;;;;;;;;;5117419;28;20196;-55
2021/04/04 06:09:46;;;;;;;1.77;1.48;;;;;;;;;;5117088;28;20176;-56
2021/04/04 06:12:20;;;;;;;2.08;1.88;;;;;;;;;;5122389;27;20204;-56
2021/04/04 06:14:46;;;;;;;1.50;1.40;;;;;;;;;;5130268;27;20212;-56
2021/04/04 06:17:19;;;;;;;2.20;1.50;;;;;;;;;;5117595;28;20256;-56
2021/04/04 06:19:54;;;;;;;1.30;1.20;;;;;;;;;;5117157;27;20462;-55
2021/04/04 06:22:25;;;;;;;1.08;1.08;;;;;;;;;;5117570;27;20177;-55
2021/04/04 06:25:01;;;;;;;3.35;1.40;;;;;;;;;;5127102;27;20555;-55
2021/04/04 06:27:36;;;;;;;3.45;1.73;;;;;;;;;;5125726;27;20184;-55
2021/04/04 06:30:02;;;;;;;2.20;1.70;;;;;;;;;;5123642;27;20225;-55
2021/04/04 06:33:04;;;;;;;2.88;1.50;;;;;;;;;;5115895;28;20570;-55
2021/04/04 06:35:37;;;;;;;4.13;1.80;;;;;;;;;;5046391;28;20210;-56
2021/04/04 06:38:11;;;;;;;4.75;1.98;;;;;;;;;;5104903;28;20488;-56
2021/04/04 06:40:42;;;;;;;2.95;1.90;;;;;;;;;;5116141;28;20172;-56
2021/04/04 06:43:11;;;;;;;2.97;2.15;;;;;;;;;;5117128;28;20804;-55
2021/04/04 06:46:10;;;;;;;3.33;1.80;;;;;;;;;;5118494;27;20518;-50
2021/04/04 06:48:55;;;;;;;4.35;2.22;;;;;;;;;;5077761;27;20613;-50
2021/04/04 06:51:40;;;;;;;4.63;2.30;;;;;;;;;;5116778;28;20181;-50
2021/04/04 06:54:12;;;;;;;6.07;2.03;;;;;;;;;;5120159;27;20205;-51
2021/04/04 06:56:57;;;;;;;5.20;2.05;;;;;;;;;;5123694;27;20796;-50
2021/04/04 06:59:27;;;;;;;11.02;2.50;;;;;;;;;;5118117;27;20200;-65
2021/04/04 07:02:00;;;;;;;5.22;2.35;;;;;;;;;;5122195;27;20607;-61
2021/04/04 07:04:35;;;;;;;5.88;2.58;;;;;;;;;;5122865;27;20184;-57
2021/04/04 07:07:22;;;;;;;7.97;2.88;;;;;;;;;;5138526;27;20191;-56
2021/04/04 07:10:07;;;;;;;5.90;2.50;;;;;;;;;;5110145;27;20189;-56
2021/04/04 07:12:42;;;;;;;7.50;3.42;;;;;;;;;;5105132;27;20188;-65
2021/04/04 07:15:14;;;;;;;7.53;2.90;;;;;;;;;;5136503;27;20213;-57
2021/04/04 07:17:58;;;;;;;11.82;3.28;;;;;;;;;;5136654;27;20214;-60
2021/04/04 07:20:30;;;;;;;6.50;2.97;;;;;;;;;;5128297;27;20195;-60
2021/04/04 07:23:15;;;;;;;7.22;3.30;;;;;;;;;;5124691;27;20246;-64
2021/04/04 07:25:44;;;;;;;6.40;2.80;;;;;;;;;;5130836;27;20198;-54
2021/04/04 07:28:38;;;;;;;8.85;3.10;;;;;;;;;;5132086;27;20207;-58
2021/04/04 07:31:08;;;;;;;10.20;3.42;;;;;;;;;;5139106;27;20263;-58
2021/04/04 07:33:43;;;;;;;9.73;3.40;;;;;;;;;;5119649;27;20189;-58
2021/04/04 07:36:15;;;;;;;8.10;3.80;;;;;;;;;;5134167;27;20481;-58
2021/04/04 07:38:41;;;;;;;8.23;3.08;;;;;;;;;;5135833;27;20590;-58
2021/04/04 07:41:12;;;;;;;9.18;3.97;;;;;;;;;;5136219;27;20177;-58
2021/04/04 07:43:45;;;;;;;8.70;3.25;;;;;;;;;;5124480;27;20208;-58
2021/04/04 07:46:19;;;;;;;6.43;3.05;;;;;;;;;;5135127;27;20198;-58
2021/04/04 07:49:00;;;;;;;8.75;3.30;;;;;;;;;;5135024;27;20188;-58
2021/04/04 07:51:32;;;;;;;6.30;3.35;;;;;;;;;;5135325;27;20169;-57
2021/04/04 07:54:07;;;;;;;6.47;3.70;;;;;;;;;;5135964;27;20215;-57
2021/04/04 07:56:51;;;;;;;8.68;3.00;;;;;;;;;;5135506;27;20629;-57
2021/04/04 07:59:17;;;;;;;7.95;3.50;;;;;;;;;;5135776;27;20176;-57
2021/04/04 08:01:48;;;;;;;7.57;3.28;;;;;;;;;;5114667;28;20169;-58
2021/04/04 08:04:19;;;;;;;6.68;2.85;;;;;;;;;;5114602;28;20595;-58
2021/04/04 08:06:52;;;;;;;7.22;3.15;;;;;;;;;;5115893;27;20195;-58
2021/04/04 08:09:44;;;;;;;9.70;3.58;;;;;;;;;;5115471;27;20478;-58
2021/04/04 08:12:20;;;;;;;7.25;3.05;;;;;;;;;;5084650;27;20242;-57
2021/04/04 08:15:02;;;;;;;10.05;3.13;;;;;;;;;;5118489;27;20201;-58
2021/04/04 08:17:28;;;;;;;6.90;2.72;;;;;;;;;;5114519;28;20173;-60
2021/04/04 08:20:06;;;;;;;7.43;3.13;;;;;;;;;;5122372;27;20192;-60
2021/04/04 08:22:34;;;;;;;5.82;2.95;;;;;;;;;;5131595;27;20525;-53
2021/04/04 08:25:04;;;;;;;5.55;2.00;;;;;;;;;;5121305;27;20271;-56
2021/04/04 08:27:31;;;;;;;5.00;2.38;;;;;;;;;;5135024;27;20180;-55
2021/04/04 08:30:17;;;;;;;6.78;2.47;;;;;;;;;;5125623;27;20215;-55
2021/04/04 08:32:54;;;;;;;3.55;1.98;;;;;;;;;;5100287;28;20203;-61
2021/04/04 08:35:29;;;;;;;3.13;2.33;;;;;;;;;;5118288;27;20200;-53
2021/04/04 08:37:58;;;;;;;4.80;1.90;;;;;;;;;;5119153;27;20167;-52
2021/04/04 08:40:25;;;;;;;11.95;2.13;;;;;;;;;;5116847;27;20185;-56
2021/04/04 08:42:51;;;;;;;4.32;2.10;;;;;;;;;;5126801;27;20203;-52
2021/04/04 08:45:21;;;;;;;5.50;1.80;;;;;;;;;;5114192;28;20188;-51
2021/04/04 08:47:48;;;;;;;4.18;1.83;;;;;;;;;;5114208;28;20204;-52
2021/04/04 08:50:19;;;;;;;3.58;1.95;;;;;;;;;;5114749;28;20268;-50
2021/04/04 08:52:48;;;;;;;3.45;1.77;;;;;;;;;;5113936;28;20783;-48
2021/04/04 08:55:18;;;;;;;3.03;1.85;;;;;;;;;;5114219;28;20189;-52
2021/04/04 08:57:46;;;;;;;3.28;1.90;;;;;;;;;;5113910;28;20192;-52
2021/04/04 09:00:14;;;;;;;3.80;1.98;;;;;;;;;;5114573;27;20560;-50
2021/04/04 09:02:46;;;;;;;3.78;1.75;;;;;;;;;;5114012;28;20209;-51
2021/04/04 09:05:12;;;;;;;6.43;2.15;;;;;;;;;;5114090;28;20169;-50
2021/04/04 09:07:43;;;;;;;3.03;1.90;;;;;;;;;;5114302;28;20498;-50
2021/04/04 09:10:11;;;;;;;3.83;1.70;;;;;;;;;;5131637;27;20195;-50
2021/04/04 09:12:38;;;;;;;5.07;1.80;;;;;;;;;;5123617;27;20180;-50
2021/04/04 09:15:05;;;;;;;4.07;1.90;;;;;;;;;;5134169;27;20361;-50
2021/04/04 09:17:32;;;;;;;3.17;1.80;;;;;;;;;;5134226;27;20252;-54
2021/04/04 09:20:00;;;;;;;7.15;2.00;;;;;;;;;;5134117;27;20180;-52
2021/04/04 09:22:27;;;;;;;5.50;2.00;;;;;;;;;;5113775;28;20170;-57
2021/04/04 09:24:54;;;;;;;5.10;1.95;;;;;;;;;;5118919;27;20442;-65
2021/04/04 09:27:22;;;;;;;6.75;2.25;;;;;;;;;;5134606;27;20191;-51
2021/04/04 09:29:49;;;;;;;2.63;1.52;;;;;;;;;;5134270;27;20269;-55
2021/04/04 09:32:33;;;;;;;3.40;1.45;;;;;;;;;;5133039;28;20202;-53
2021/04/04 09:35:00;;;;;;;3.70;1.63;;;;;;;;;;5125638;28;20197;-56
2021/04/04 09:37:27;;;;;;;5.32;2.03;;;;;;;;;;5126062;28;20234;-52
2021/04/04 09:39:55;;;;;;;3.53;1.75;;;;;;;;;;5127846;28;20643;-57
2021/04/04 09:42:21;;;;;;;4.03;1.80;;;;;;;;;;5127741;28;20180;-50
2021/04/04 09:44:47;;;;;;;6.45;1.98;;;;;;;;;;5120498;28;20180;-55
2021/04/04 09:47:13;;;;;;;4.22;1.50;;;;;;;;;;5134101;28;20229;-57
2021/04/04 09:49:42;;;;;;;4.65;1.60;;;;;;;;;;5119400;28;20199;-58
2021/04/04 09:52:18;;;;;;;4.30;1.75;;;;;;;;;;5126818;28;20188;-54
2021/04/04 09:55:04;;;;;;;3.92;1.60;;;;;;;;;;5133254;28;20195;-54
2021/04/04 09:57:31;;;;;;;7.03;1.92;;;;;;;;;;5113535;28;20188;-55
2021/04/04 09:59:57;;;;;;;3.28;1.45;;;;;;;;;;5134199;28;20180;-58
2021/04/04 10:02:34;;;;;;;3.20;1.70;;;;;;;;;;5129796;28;20553;-61
2021/04/04 10:05:00;;;;;;;5.32;1.70;;;;;;;;;;5115595;28;21529;-52
2021/04/04 10:07:27;;;;;;;3.47;1.48;;;;;;;;;;5122755;28;20196;-52
2021/04/04 10:09:53;;;;;;;2.28;1.88;;;;;;;;;;5116114;28;20189;-50
2021/04/04 10:12:19;;;;;;;18.25;8.18;;;;;;;;;;5122412;28;20262;-53
2021/04/04 10:15:01;;;;;;;68.68;36.97;;;;;;;;;;5110808;28;20209;-52
2021/04/04 10:17:27;;;;;;;67.95;38.30;;;;;;;;;;5113067;28;20260;-53
2021/04/04 10:19:57;;;;;;;54.83;28.95;;;;;;;;;;5121827;28;20191;-53
2021/04/04 10:22:23;;;;;;;54.40;28.13;;;;;;;;;;5124685;27;20180;-53
2021/04/04 10:24:49;;;;;;;48.55;25.58;;;;;;;;;;5133768;28;20200;-53
2021/04/04 10:27:28;;;;;;;43.20;22.52;;;;;;;;;;5124716;28;20181;-52
2021/04/04 10:30:03;;;;;;;35.65;20.83;;;;;;;;;;5133686;28;20573;-54
2021/04/04 10:32:29;;;;;;;35.72;19.42;;;;;;;;;;5133380;28;20180;-53
2021/04/04 10:34:55;;;;;;;31.63;17.63;;;;;;;;;;5125837;28;20207;-49
2021/04/04 10:37:28;;;;;;;28.10;14.30;;;;;;;;;;5117115;28;20177;-52
2021/04/04 10:40:05;;;;;;;29.80;13.85;;;;;;;;;;5128885;27;20177;-54
2021/04/04 10:42:32;;;;;;;32.88;13.80;;;;;;;;;;5136726;27;20203;-59
2021/04/04 10:45:12;;;;;;;25.30;12.15;;;;;;;;;;5136800;27;20188;-51
2021/04/04 10:47:38;;;;;;;19.88;10.88;;;;;;;;;;5137110;27;20168;-51
2021/04/04 10:50:07;;;;;;;20.48;10.60;;;;;;;;;;5124307;27;20189;-52
2021/04/04 10:52:34;;;;;;;23.10;9.02;;;;;;;;;;5136186;27;20563;-57
2021/04/04 10:55:00;;;;;;;15.02;8.48;;;;;;;;;;5124844;27;20199;-56
2021/04/04 10:57:27;;;;;;;17.27;8.82;;;;;;;;;;5132040;27;20180;-56
2021/04/04 10:59:54;;;;;;;17.67;8.25;;;;;;;;;;5132766;27;20187;-56
2021/04/04 11:02:21;;;;;;;12.25;7.60;;;;;;;;;;5130220;27;20189;-56
2021/04/04 11:04:47;;;;;;;13.90;7.18;;;;;;;;;;5134479;27;20177;-56
2021/04/04 11:07:13;;;;;;;16.38;6.95;;;;;;;;;;5137078;27;20184;-57
2021/04/04 11:09:39;;;;;;;12.80;6.68;;;;;;;;;;5128559;27;20196;-56
2021/04/04 11:12:06;;;;;;;11.57;5.72;;;;;;;;;;5124851;27;20173;-57
2021/04/04 11:14:32;;;;;;;11.05;5.65;;;;;;;;;;5133491;27;20224;-56
2021/04/04 11:17:02;;;;;;;13.27;5.28;;;;;;;;;;5116398;27;20466;-56
2021/04/04 11:19:29;;;;;;;10.95;4.88;;;;;;;;;;5119235;27;20298;-56
2021/04/04 11:21:57;;;;;;;11.07;4.32;;;;;;;;;;5136678;27;20255;-56
2021/04/04 11:24:23;;;;;;;9.90;4.88;;;;;;;;;;5133993;27;20196;-56
2021/04/04 11:26:58;;;;;;;8.18;3.65;;;;;;;;;;5129994;27;20180;-56
2021/04/04 11:29:25;;;;;;;7.47;3.47;;;;;;;;;;5118440;27;20196;-58
2021/04/04 11:31:52;;;;;;;8.38;4.13;;;;;;;;;;5116107;28;20230;-58
2021/04/04 11:34:29;;;;;;;6.45;3.67;;;;;;;;;;5117656;27;20271;-57
2021/04/04 11:36:56;;;;;;;9.70;3.40;;;;;;;;;;5126018;27;20180;-57
2021/04/04 11:39:22;;;;;;;9.18;3.20;;;;;;;;;;5124535;27;20200;-57
2021/04/04 11:41:52;;;;;;;6.18;3.38;;;;;;;;;;5116475;27;20548;-57
2021/04/04 11:44:23;;;;;;;5.07;2.97;;;;;;;;;;5123626;27;20203;-58
2021/04/04 11:46:54;;;;;;;6.00;3.08;;;;;;;;;;5124939;27;20195;-58
2021/04/04 11:49:38;;;;;;;6.15;3.10;;;;;;;;;;5097633;28;20471;-56
2021/04/04 11:52:08;;;;;;;8.63;3.03;;;;;;;;;;5115900;27;20191;-55
2021/04/04 11:54:46;;;;;;;8.20;3.40;;;;;;;;;;5114293;28;20628;-57
2021/04/04 11:57:12;;;;;;;6.25;2.53;;;;;;;;;;5118041;27;20176;-56
2021/04/04 11:59:38;;;;;;;9.95;3.08;;;;;;;;;;5115265;27;20210;-56
2021/04/04 12:02:04;;;;;;;6.07;2.58;;;;;;;;;;5117496;27;20731;-57
2021/04/04 12:04:34;;;;;;;5.88;3.00;;;;;;;;;;5114546;28;20571;-60
2021/04/04 12:07:10;;;;;;;7.88;2.55;;;;;;;;;;5115449;27;20258;-56
2021/04/04 12:09:37;;;;;;;5.82;2.50;;;;;;;;;;5118296;27;20263;-61
2021/04/04 12:12:04;;;;;;;5.53;2.38;;;;;;;;;;5122980;27;20222;-60
2021/04/04 12:14:30;;;;;;;7.47;2.70;;;;;;;;;;5114215;28;20204;-54
2021/04/04 12:16:56;;;;;;;6.30;2.85;;;;;;;;;;5101679;27;20177;-51
2021/04/04 12:19:26;;;;;;;5.22;2.47;;;;;;;;;;5129842;27;20187;-55
2021/04/04 12:21:52;;;;;;;7.18;2.05;;;;;;;;;;5125215;27;20560;-56
2021/04/04 12:24:19;;;;;;;6.47;2.40;;;;;;;;;;5115002;27;20177;-58
2021/04/04 12:26:45;;;;;;;6.55;2.40;;;;;;;;;;5114133;28;20181;-52
2021/04/04 12:29:11;;;;;;;6.07;2.13;;;;;;;;;;5114995;28;20184;-56
2021/04/04 12:31:43;;;;;;;5.32;2.50;;;;;;;;;;5114094;28;20178;-50
2021/04/04 12:34:09;;;;;;;5.18;2.30;;;;;;;;;;5116405;27;20189;-50
2021/04/04 12:36:42;;;;;;;3.83;2.13;;;;;;;;;;5134138;27;20180;-50
2021/04/04 12:39:08;;;;;;;3.58;2.25;;;;;;;;;;5132774;27;20837;-49
2021/04/04 12:41:34;;;;;;;6.78;1.90;;;;;;;;;;5114322;28;20173;-49
2021/04/04 12:44:00;;;;;;;4.10;2.20;;;;;;;;;;5114192;28;20196;-49
2021/04/04 12:46:32;;;;;;;2.65;2.05;;;;;;;;;;5114294;28;20584;-49
2021/04/04 12:48:58;;;;;;;5.90;2.25;;;;;;;;;;5134646;27;20551;-50
2021/04/04 12:51:25;;;;;;;4.45;2.05;;;;;;;;;;5134545;27;20176;-49
2021/04/04 12:53:51;;;;;;;7.45;2.00;;;;;;;;;;5134851;27;20180;-52
2021/04/04 12:56:36;;;;;;;3.85;2.08;;;;;;;;;;5116793;27;20190;-52
2021/04/04 12:59:03;;;;;;;3.55;1.60;;;;;;;;;;5133158;27;20180;-52
2021/04/04 13:01:29;;;;;;;4.20;2.08;;;;;;;;;;5134094;27;20180;-51
2021/04/04 13:03:56;;;;;;;3.85;1.90;;;;;;;;;;5136784;27;20209;-50
2021/04/04 13:06:22;;;;;;;5.78;2.20;;;;;;;;;;5134775;27;20172;-52
2021/04/04 13:08:48;;;;;;;6.32;2.25;;;;;;;;;;5126647;27;20201;-49
2021/04/04 13:11:16;;;;;;;6.18;2.47;;;;;;;;;;5124366;27;20194;-50
2021/04/04 13:13:47;;;;;;;6.07;2.00;;;;;;;;;;5121725;27;20200;-52
2021/04/04 13:16:37;;;;;;;6.15;2.03;;;;;;;;;;5158204;27;20474;-50
2021/04/04 13:19:03;;;;;;;4.95;2.00;;;;;;;;;;5134081;28;20255;-48
2021/04/04 13:21:35;;;;;;;3.40;1.88;;;;;;;;;;5125468;28;20216;-49
2021/04/04 13:24:01;;;;;;;5.43;1.90;;;;;;;;;;5129946;27;20184;-50
2021/04/04 13:26:32;;;;;;;3.67;2.17;;;;;;;;;;5133791;27;20230;-48
2021/04/04 13:29:01;;;;;;;6.70;2.40;;;;;;;;;;5141732;27;20183;-49
2021/04/04 13:31:28;;;;;;;6.47;1.98;;;;;;;;;;5134917;27;20191;-49
2021/04/04 13:34:12;;;;;;;3.50;2.17;;;;;;;;;;5132655;27;20173;-52
2021/04/04 13:36:54;;;;;;;5.38;2.47;;;;;;;;;;5132470;28;20560;-53
2021/04/04 13:39:22;;;;;;;4.80;1.88;;;;;;;;;;5150395;27;20210;-60
2021/04/04 13:41:49;;;;;;;4.70;2.20;;;;;;;;;;5151164;27;20183;-51
2021/04/04 13:44:19;;;;;;;4.10;2.47;;;;;;;;;;5152043;27;20190;-53
2021/04/04 13:46:55;;;;;;;4.63;2.50;;;;;;;;;;5147765;27;20176;-52
2021/04/04 13:49:23;;;;;;;4.65;2.15;;;;;;;;;;5132270;27;20198;-51
2021/04/04 13:51:50;;;;;;;6.18;2.10;;;;;;;;;;5142192;27;20219;-55
2021/04/04 13:54:20;;;;;;;5.03;1.65;;;;;;;;;;5131262;27;20192;-50
2021/04/04 13:56:46;;;;;;;4.63;1.85;;;;;;;;;;5134712;27;20206;-53
2021/04/04 13:59:16;;;;;;;3.70;1.90;;;;;;;;;;5139708;27;20230;-51
2021/04/04 14:01:46;;;;;;;4.00;1.58;;;;;;;;;;5134599;27;20181;-55
2021/04/04 14:04:22;;;;;;;5.22;1.60;;;;;;;;;;5133966;27;20255;-49
2021/04/04 14:06:53;;;;;;;4.60;1.83;;;;;;;;;;5140616;27;20184;-58
2021/04/04 14:09:20;;;;;;;4.05;2.10;;;;;;;;;;5133289;27;20496;-51
2021/04/04 14:11:46;;;;;;;2.92;1.80;;;;;;;;;;5131889;27;20204;-47
2021/04/04 14:14:12;;;;;;;10.48;2.42;;;;;;;;;;5130513;28;20173;-54
2021/04/04 14:16:39;;;;;;;5.25;2.42;;;;;;;;;;5119983;28;20183;-53
2021/04/04 14:19:09;;;;;;;5.55;2.50;;;;;;;;;;5131352;28;20518;-60
2021/04/04 14:21:35;;;;;;;4.07;2.33;;;;;;;;;;5117095;28;20192;-57
2021/04/04 14:24:01;;;;;;;3.50;2.05;;;;;;;;;;5126775;28;20771;-53
2021/04/04 14:26:27;;;;;;;5.30;2.40;;;;;;;;;;5107791;28;20181;-52
2021/04/04 14:28:53;;;;;;;4.68;2.42;;;;;;;;;;5097552;28;20260;-50
2021/04/04 14:31:19;;;;;;;4.20;2.22;;;;;;;;;;5079559;28;20189;-52
2021/04/04 14:33:45;;;;;;;4.05;2.20;;;;;;;;;;5111393;28;20181;-51
2021/04/04 14:36:12;;;;;;;4.57;2.65;;;;;;;;;;5105333;28;20269;-50
2021/04/04 14:38:38;;;;;;;4.63;2.13;;;;;;;;;;5117548;28;20252;-48
2021/04/04 14:41:05;;;;;;;5.47;2.10;;;;;;;;;;5117498;28;20169;-48
2021/04/04 14:43:38;;;;;;;4.60;2.20;;;;;;;;;;5099551;28;20212;-53
2021/04/04 14:46:04;;;;;;;6.75;1.73;;;;;;;;;;5116488;28;20495;-51
2021/04/04 14:48:30;;;;;;;4.55;2.10;;;;;;;;;;5096851;28;20638;-47
2021/04/04 14:50:57;;;;;;;8.77;2.58;;;;;;;;;;5096896;28;20178;-47
2021/04/04 14:53:23;;;;;;;4.97;2.20;;;;;;;;;;5097064;28;20220;-47